sensor_id;sensor_type;location;lat;lon;timestamp;P1;durP1;ratioP1;P2;durP2;ratioP2
21804;SDS011;11064;47.102;15.452;2022-10-16T05:01:33;63.70;;;32.72;;
21804;SDS011;11064;47.102;15.452;2022-10-16T05:03:59;71.30;;;35.17;;
21804;SDS011;11064;47.102;15.452;2022-10-16T05:06:25;61.03;;;32.38;;
21804;SDS011;11064;47.102;15.452;2022-10-16T05:08:51;70.75;;;34.60;;
21804;SDS011;11064;47.102;15.452;2022-10-16T05:11:17;65.93;;;33.50;;
21804;SDS011;11064;47.102;15.452;2022-10-16T05:13:42;66.22;;;33.90;;
21804;SDS011;11064;47.102;15.452;2022-10-16T05:16:08;71.97;;;34.88;;
21804;SDS011;11064;47.102;15.452;2022-10-16T05:18:34;69.75;;;34.83;;
21804;SDS011;11064;47.102;15.452;2022-10-16T05:21:00;74.32;;;35.10;;
21804;SDS011;11064;47.102;15.452;2022-10-16T05:23:25;75.30;;;36.25;;
21804;SDS011;11064;47.102;15.452;2022-10-16T05:25:52;74.20;;;35.20;;
21804;SDS011;11064;47.102;15.452;2022-10-16T05:28:23;76.15;;;34.75;;
21804;SDS011;11064;47.102;15.452;2022-10-16T05:30:50;67.40;;;33.92;;
21804;SDS011;11064;47.102;15.452;2022-10-16T05:33:16;70.97;;;35.08;;
21804;SDS011;11064;47.102;15.452;2022-10-16T05:35:42;69.65;;;34.53;;
21804;SDS011;11064;47.102;15.452;2022-10-16T05:38:09;61.92;;;33.05;;
21804;SDS011;11064;47.102;15.452;2022-10-16T05:40:35;62.05;;;32.72;;
21804;SDS011;11064;47.102;15.452;2022-10-16T05:43:00;61.85;;;32.92;;
21804;SDS011;11064;47.102;15.452;2022-10-16T05:45:26;67.78;;;33.58;;
21804;SDS011;11064;47.102;15.452;2022-10-16T05:47:52;65.30;;;33.50;;
21804;SDS011;11064;47.102;15.452;2022-10-16T05:50:18;57.10;;;31.70;;
21804;SDS011;11064;47.102;15.452;2022-10-16T05:52:44;58.47;;;31.25;;
21804;SDS011;11064;47.102;15.452;2022-10-16T05:55:09;62.03;;;31.65;;
21804;SDS011;11064;47.102;15.452;2022-10-16T05:57:35;57.50;;;30.45;;
21804;SDS011;11064;47.102;15.452;2022-10-16T06:00:01;61.35;;;31.23;;
21804;SDS011;11064;47.102;15.452;2022-10-16T06:02:28;60.10;;;30.95;;
21804;SDS011;11064;47.102;15.452;2022-10-16T06:04:54;59.75;;;31.05;;
21804;SDS011;11064;47.102;15.452;2022-10-16T06:07:20;70.47;;;32.28;;
21804;SDS011;11064;47.102;15.452;2022-10-16T06:09:50;117.53;;;34.53;;
21804;SDS011;11064;47.102;15.452;2022-10-16T06:12:16;72.25;;;31.73;;
21804;SDS011;11064;47.102;15.452;2022-10-16T06:14:44;123.65;;;33.30;;
21804;SDS011;11064;47.102;15.452;2022-10-16T06:17:13;123.65;;;34.50;;
21804;SDS011;11064;47.102;15.452;2022-10-16T06:19:39;85.50;;;32.38;;
21804;SDS011;11064;47.102;15.452;2022-10-16T06:22:05;94.95;;;34.90;;
21804;SDS011;11064;47.102;15.452;2022-10-16T06:24:31;240.60;;;40.78;;
21804;SDS011;11064;47.102;15.452;2022-10-16T06:26:57;81.68;;;34.80;;
21804;SDS011;11064;47.102;15.452;2022-10-16T06:29:23;89.90;;;38.97;;
21804;SDS011;11064;47.102;15.452;2022-10-16T06:31:48;90.45;;;39.47;;
21804;SDS011;11064;47.102;15.452;2022-10-16T06:34:14;86.30;;;38.75;;
21804;SDS011;11064;47.102;15.452;2022-10-16T06:36:40;81.93;;;36.55;;
21804;SDS011;11064;47.102;15.452;2022-10-16T06:39:08;85.85;;;38.10;;
21804;SDS011;11064;47.102;15.452;2022-10-16T06:41:34;83.72;;;37.97;;
21804;SDS011;11064;47.102;15.452;2022-10-16T06:44:00;72.47;;;36.45;;
21804;SDS011;11064;47.102;15.452;2022-10-16T06:46:26;74.15;;;36.53;;
21804;SDS011;11064;47.102;15.452;2022-10-16T06:48:53;73.32;;;36.60;;
21804;SDS011;11064;47.102;15.452;2022-10-16T06:51:19;74.85;;;35.75;;
21804;SDS011;11064;47.102;15.452;2022-10-16T06:53:51;79.68;;;35.45;;
21804;SDS011;11064;47.102;15.452;2022-10-16T06:58:44;72.45;;;35.72;;
21804;SDS011;11064;47.102;15.452;2022-10-16T07:01:11;61.25;;;31.85;;
21804;SDS011;11064;47.102;15.452;2022-10-16T07:03:38;69.20;;;34.20;;
21804;SDS011;11064;47.102;15.452;2022-10-16T07:06:06;65.00;;;33.50;;
21804;SDS011;11064;47.102;15.452;2022-10-16T07:08:34;62.55;;;32.17;;
21804;SDS011;11064;47.102;15.452;2022-10-16T07:11:02;67.88;;;33.90;;
21804;SDS011;11064;47.102;15.452;2022-10-16T07:13:34;60.63;;;32.53;;
21804;SDS011;11064;47.102;15.452;2022-10-16T07:16:04;66.38;;;32.65;;
21804;SDS011;11064;47.102;15.452;2022-10-16T07:21:07;66.90;;;31.67;;
21804;SDS011;11064;47.102;15.452;2022-10-16T07:23:36;67.75;;;31.40;;
21804;SDS011;11064;47.102;15.452;2022-10-16T07:26:03;60.85;;;30.42;;
21804;SDS011;11064;47.102;15.452;2022-10-16T07:28:29;59.65;;;31.63;;
21804;SDS011;11064;47.102;15.452;2022-10-16T07:31:01;67.03;;;33.15;;
21804;SDS011;11064;47.102;15.452;2022-10-16T07:33:32;67.88;;;32.47;;
21804;SDS011;11064;47.102;15.452;2022-10-16T07:36:00;64.28;;;33.67;;
21804;SDS011;11064;47.102;15.452;2022-10-16T07:38:25;60.95;;;31.00;;
21804;SDS011;11064;47.102;15.452;2022-10-16T07:41:01;52.90;;;30.45;;
21804;SDS011;11064;47.102;15.452;2022-10-16T07:43:29;49.85;;;30.17;;
21804;SDS011;11064;47.102;15.452;2022-10-16T07:45:55;44.42;;;28.00;;
21804;SDS011;11064;47.102;15.452;2022-10-16T07:48:22;46.05;;;27.92;;
21804;SDS011;11064;47.102;15.452;2022-10-16T07:50:51;47.40;;;27.90;;
21804;SDS011;11064;47.102;15.452;2022-10-16T07:53:17;43.35;;;26.02;;
21804;SDS011;11064;47.102;15.452;2022-10-16T07:55:42;41.05;;;26.27;;
21804;SDS011;11064;47.102;15.452;2022-10-16T07:58:08;43.53;;;24.92;;
21804;SDS011;11064;47.102;15.452;2022-10-16T08:00:35;37.70;;;24.42;;
21804;SDS011;11064;47.102;15.452;2022-10-16T08:03:02;37.80;;;24.83;;
21804;SDS011;11064;47.102;15.452;2022-10-16T08:05:29;35.85;;;23.13;;
21804;SDS011;11064;47.102;15.452;2022-10-16T08:07:56;37.53;;;22.85;;
21804;SDS011;11064;47.102;15.452;2022-10-16T08:10:23;35.15;;;22.95;;
21804;SDS011;11064;47.102;15.452;2022-10-16T08:12:50;34.92;;;23.15;;
21804;SDS011;11064;47.102;15.452;2022-10-16T08:15:17;33.97;;;23.40;;
21804;SDS011;11064;47.102;15.452;2022-10-16T08:17:44;35.88;;;22.70;;
21804;SDS011;11064;47.102;15.452;2022-10-16T08:20:18;33.17;;;22.23;;
21804;SDS011;11064;47.102;15.452;2022-10-16T08:22:44;30.42;;;21.05;;
21804;SDS011;11064;47.102;15.452;2022-10-16T08:25:10;32.90;;;21.13;;
21804;SDS011;11064;47.102;15.452;2022-10-16T08:27:35;32.10;;;21.45;;
21804;SDS011;11064;47.102;15.452;2022-10-16T08:30:01;34.72;;;20.77;;
21804;SDS011;11064;47.102;15.452;2022-10-16T08:32:27;28.77;;;20.73;;
21804;SDS011;11064;47.102;15.452;2022-10-16T08:34:53;30.83;;;19.50;;
21804;SDS011;11064;47.102;15.452;2022-10-16T08:37:19;29.27;;;20.15;;
21804;SDS011;11064;47.102;15.452;2022-10-16T08:39:44;29.95;;;20.08;;
21804;SDS011;11064;47.102;15.452;2022-10-16T08:47:43;32.35;;;20.10;;
21804;SDS011;11064;47.102;15.452;2022-10-16T08:50:18;29.08;;;20.02;;
21804;SDS011;11064;47.102;15.452;2022-10-16T08:52:53;30.20;;;19.27;;
21804;SDS011;11064;47.102;15.452;2022-10-16T08:57:57;28.88;;;19.58;;
21804;SDS011;11064;47.102;15.452;2022-10-16T09:00:23;26.98;;;19.65;;
21804;SDS011;11064;47.102;15.452;2022-10-16T09:18:45;26.23;;;17.15;;
21804;SDS011;11064;47.102;15.452;2022-10-16T09:21:41;23.58;;;17.20;;
21804;SDS011;11064;47.102;15.452;2022-10-16T09:24:16;23.95;;;17.17;;
21804;SDS011;11064;47.102;15.452;2022-10-16T09:26:44;25.88;;;19.02;;
21804;SDS011;11064;47.102;15.452;2022-10-16T09:29:14;28.27;;;21.00;;
21804;SDS011;11064;47.102;15.452;2022-10-16T09:31:41;27.02;;;20.02;;
21804;SDS011;11064;47.102;15.452;2022-10-16T09:36:49;27.00;;;21.17;;
21804;SDS011;11064;47.102;15.452;2022-10-16T09:39:16;28.85;;;22.45;;
21804;SDS011;11064;47.102;15.452;2022-10-16T09:41:43;27.02;;;21.17;;
21804;SDS011;11064;47.102;15.452;2022-10-16T09:44:21;27.02;;;21.58;;
21804;SDS011;11064;47.102;15.452;2022-10-16T09:46:48;27.10;;;21.27;;
21804;SDS011;11064;47.102;15.452;2022-10-16T09:49:25;28.55;;;20.45;;
21804;SDS011;11064;47.102;15.452;2022-10-16T09:52:02;27.35;;;20.55;;
21804;SDS011;11064;47.102;15.452;2022-10-16T09:54:29;25.60;;;20.88;;
21804;SDS011;11064;47.102;15.452;2022-10-16T09:57:03;25.33;;;19.95;;
21804;SDS011;11064;47.102;15.452;2022-10-16T09:59:45;27.65;;;22.10;;
21804;SDS011;11064;47.102;15.452;2022-10-16T10:02:18;29.92;;;22.20;;
21804;SDS011;11064;47.102;15.452;2022-10-16T10:04:50;28.00;;;21.02;;
21804;SDS011;11064;47.102;15.452;2022-10-16T10:07:25;31.35;;;22.23;;
21804;SDS011;11064;47.102;15.452;2022-10-16T10:09:52;29.67;;;22.38;;
21804;SDS011;11064;47.102;15.452;2022-10-16T10:12:20;27.55;;;21.75;;
21804;SDS011;11064;47.102;15.452;2022-10-16T10:14:49;25.45;;;21.02;;
21804;SDS011;11064;47.102;15.452;2022-10-16T10:17:23;28.23;;;21.52;;
21804;SDS011;11064;47.102;15.452;2022-10-16T10:19:57;25.50;;;21.00;;
21804;SDS011;11064;47.102;15.452;2022-10-16T10:27:58;28.23;;;20.85;;
21804;SDS011;11064;47.102;15.452;2022-10-16T10:30:42;26.88;;;21.55;;
21804;SDS011;11064;47.102;15.452;2022-10-16T10:38:39;26.98;;;19.42;;
21804;SDS011;11064;47.102;15.452;2022-10-16T10:41:54;25.70;;;20.23;;
21804;SDS011;11064;47.102;15.452;2022-10-16T10:47:43;26.13;;;19.30;;
21804;SDS011;11064;47.102;15.452;2022-10-16T10:55:41;24.88;;;18.98;;
21804;SDS011;11064;47.102;15.452;2022-10-16T11:03:46;24.05;;;19.67;;
21804;SDS011;11064;47.102;15.452;2022-10-16T11:06:40;22.80;;;18.48;;
21804;SDS011;11064;47.102;15.452;2022-10-16T11:09:22;22.90;;;18.08;;
21804;SDS011;11064;47.102;15.452;2022-10-16T11:14:46;23.73;;;18.42;;
21804;SDS011;11064;47.102;15.452;2022-10-16T11:17:15;25.48;;;18.25;;
21804;SDS011;11064;47.102;15.452;2022-10-16T11:19:57;25.55;;;18.70;;
21804;SDS011;11064;47.102;15.452;2022-10-16T11:30:12;23.48;;;19.20;;
21804;SDS011;11064;47.102;15.452;2022-10-16T11:32:54;27.77;;;20.10;;
21804;SDS011;11064;47.102;15.452;2022-10-16T11:35:44;24.65;;;19.65;;
21804;SDS011;11064;47.102;15.452;2022-10-16T11:41:25;23.33;;;18.83;;
21804;SDS011;11064;47.102;15.452;2022-10-16T11:44:18;24.88;;;19.35;;
21804;SDS011;11064;47.102;15.452;2022-10-16T11:47:23;24.83;;;19.83;;
21804;SDS011;11064;47.102;15.452;2022-10-16T11:49:50;28.65;;;19.73;;
21804;SDS011;11064;47.102;15.452;2022-10-16T11:52:28;28.60;;;20.77;;
21804;SDS011;11064;47.102;15.452;2022-10-16T11:55:01;36.75;;;19.63;;
21804;SDS011;11064;47.102;15.452;2022-10-16T11:57:34;25.73;;;19.83;;
21804;SDS011;11064;47.102;15.452;2022-10-16T12:00:18;25.15;;;18.65;;
21804;SDS011;11064;47.102;15.452;2022-10-16T12:03:08;25.23;;;19.05;;
21804;SDS011;11064;47.102;15.452;2022-10-16T12:06:02;24.25;;;18.60;;
21804;SDS011;11064;47.102;15.452;2022-10-16T12:08:37;23.17;;;17.67;;
21804;SDS011;11064;47.102;15.452;2022-10-16T12:11:31;22.35;;;17.60;;
21804;SDS011;11064;47.102;15.452;2022-10-16T12:14:07;21.88;;;17.42;;
21804;SDS011;11064;47.102;15.452;2022-10-16T12:19:25;21.10;;;17.05;;
21804;SDS011;11064;47.102;15.452;2022-10-16T12:21:54;21.98;;;16.73;;
21804;SDS011;11064;47.102;15.452;2022-10-16T12:24:27;24.13;;;17.20;;
21804;SDS011;11064;47.102;15.452;2022-10-16T12:26:58;22.33;;;16.63;;
21804;SDS011;11064;47.102;15.452;2022-10-16T12:32:02;20.42;;;16.10;;
21804;SDS011;11064;47.102;15.452;2022-10-16T12:34:32;19.90;;;15.88;;
21804;SDS011;11064;47.102;15.452;2022-10-16T12:37:11;22.23;;;16.55;;
21804;SDS011;11064;47.102;15.452;2022-10-16T12:39:45;19.20;;;15.52;;
21804;SDS011;11064;47.102;15.452;2022-10-16T12:42:21;20.00;;;15.88;;
21804;SDS011;11064;47.102;15.452;2022-10-16T12:44:49;22.70;;;16.38;;
21804;SDS011;11064;47.102;15.452;2022-10-16T12:49:56;18.70;;;15.52;;
21804;SDS011;11064;47.102;15.452;2022-10-16T12:52:36;21.58;;;15.93;;
21804;SDS011;11064;47.102;15.452;2022-10-16T12:55:04;19.80;;;15.98;;
21804;SDS011;11064;47.102;15.452;2022-10-16T13:17:30;21.47;;;15.03;;
21804;SDS011;11064;47.102;15.452;2022-10-16T13:28:27;19.00;;;14.73;;
21804;SDS011;11064;47.102;15.452;2022-10-16T13:30:55;17.63;;;14.82;;
21804;SDS011;11064;47.102;15.452;2022-10-16T13:36:00;18.08;;;14.75;;
21804;SDS011;11064;47.102;15.452;2022-10-16T13:38:28;23.25;;;15.23;;
21804;SDS011;11064;47.102;15.452;2022-10-16T13:41:05;19.10;;;15.23;;
21804;SDS011;11064;47.102;15.452;2022-10-16T13:43:40;19.30;;;15.20;;
21804;SDS011;11064;47.102;15.452;2022-10-16T13:46:17;22.75;;;15.02;;
21804;SDS011;11064;47.102;15.452;2022-10-16T13:48:45;20.42;;;15.45;;
21804;SDS011;11064;47.102;15.452;2022-10-16T13:51:26;18.42;;;14.98;;
21804;SDS011;11064;47.102;15.452;2022-10-16T13:53:54;19.48;;;15.77;;
21804;SDS011;11064;47.102;15.452;2022-10-16T13:56:21;20.30;;;16.17;;
21804;SDS011;11064;47.102;15.452;2022-10-16T13:59:03;19.13;;;15.70;;
21804;SDS011;11064;47.102;15.452;2022-10-16T14:01:43;20.02;;;16.20;;
21804;SDS011;11064;47.102;15.452;2022-10-16T14:04:10;24.75;;;16.98;;
21804;SDS011;11064;47.102;15.452;2022-10-16T14:06:45;22.80;;;16.38;;
21804;SDS011;11064;47.102;15.452;2022-10-16T14:09:26;22.73;;;17.23;;
21804;SDS011;11064;47.102;15.452;2022-10-16T14:14:20;19.92;;;16.45;;
21804;SDS011;11064;47.102;15.452;2022-10-16T14:16:47;23.60;;;17.75;;
21804;SDS011;11064;47.102;15.452;2022-10-16T14:19:24;23.38;;;17.30;;
21804;SDS011;11064;47.102;15.452;2022-10-16T14:21:52;22.38;;;16.92;;
21804;SDS011;11064;47.102;15.452;2022-10-16T14:26:56;20.45;;;17.25;;
21804;SDS011;11064;47.102;15.452;2022-10-16T14:29:23;20.42;;;17.30;;
21804;SDS011;11064;47.102;15.452;2022-10-16T14:31:54;21.73;;;17.17;;
21804;SDS011;11064;47.102;15.452;2022-10-16T14:34:31;24.55;;;17.55;;
21804;SDS011;11064;47.102;15.452;2022-10-16T14:36:58;23.50;;;17.88;;
21804;SDS011;11064;47.102;15.452;2022-10-16T14:39:48;22.67;;;17.88;;
21804;SDS011;11064;47.102;15.452;2022-10-16T14:42:16;23.85;;;17.50;;
21804;SDS011;11064;47.102;15.452;2022-10-16T14:44:45;24.70;;;17.67;;
21804;SDS011;11064;47.102;15.452;2022-10-16T14:47:16;31.42;;;19.45;;
21804;SDS011;11064;47.102;15.452;2022-10-16T14:49:47;22.02;;;17.70;;
21804;SDS011;11064;47.102;15.452;2022-10-16T14:52:13;23.90;;;18.45;;
21804;SDS011;11064;47.102;15.452;2022-10-16T14:54:39;23.00;;;18.50;;
21804;SDS011;11064;47.102;15.452;2022-10-16T14:57:05;25.30;;;19.25;;
21804;SDS011;11064;47.102;15.452;2022-10-16T14:59:40;25.25;;;18.98;;
21804;SDS011;11064;47.102;15.452;2022-10-16T15:05:04;28.15;;;19.63;;
21804;SDS011;11064;47.102;15.452;2022-10-16T15:07:47;29.90;;;20.55;;
21804;SDS011;11064;47.102;15.452;2022-10-16T15:10:14;25.48;;;19.65;;
21804;SDS011;11064;47.102;15.452;2022-10-16T15:12:41;25.02;;;19.70;;
21804;SDS011;11064;47.102;15.452;2022-10-16T15:17:48;29.73;;;19.88;;
21804;SDS011;11064;47.102;15.452;2022-10-16T15:20:17;26.27;;;19.23;;
21804;SDS011;11064;47.102;15.452;2022-10-16T15:22:43;25.27;;;18.75;;
21804;SDS011;11064;47.102;15.452;2022-10-16T15:30:16;27.17;;;19.90;;
21804;SDS011;11064;47.102;15.452;2022-10-16T15:32:41;31.20;;;21.10;;
21804;SDS011;11064;47.102;15.452;2022-10-16T15:35:08;29.02;;;21.98;;
21804;SDS011;11064;47.102;15.452;2022-10-16T15:37:34;29.80;;;22.55;;
21804;SDS011;11064;47.102;15.452;2022-10-16T15:40:00;29.90;;;22.13;;
21804;SDS011;11064;47.102;15.452;2022-10-16T15:42:26;34.80;;;23.92;;
21804;SDS011;11064;47.102;15.452;2022-10-16T15:44:52;32.38;;;24.88;;
21804;SDS011;11064;47.102;15.452;2022-10-16T15:47:17;40.17;;;24.58;;
21804;SDS011;11064;47.102;15.452;2022-10-16T15:49:43;37.58;;;24.58;;
21804;SDS011;11064;47.102;15.452;2022-10-16T15:52:09;34.30;;;25.15;;
21804;SDS011;11064;47.102;15.452;2022-10-16T15:54:35;35.38;;;27.08;;
21804;SDS011;11064;47.102;15.452;2022-10-16T15:57:00;42.05;;;26.25;;
21804;SDS011;11064;47.102;15.452;2022-10-16T15:59:26;38.38;;;27.58;;
21804;SDS011;11064;47.102;15.452;2022-10-16T16:01:52;37.42;;;27.83;;
21804;SDS011;11064;47.102;15.452;2022-10-16T16:04:18;37.90;;;27.52;;
21804;SDS011;11064;47.102;15.452;2022-10-16T16:06:43;36.67;;;27.55;;
21804;SDS011;11064;47.102;15.452;2022-10-16T16:09:10;37.10;;;27.85;;
21804;SDS011;11064;47.102;15.452;2022-10-16T16:11:37;37.90;;;28.00;;
21804;SDS011;11064;47.102;15.452;2022-10-16T16:14:04;41.35;;;27.92;;
21804;SDS011;11064;47.102;15.452;2022-10-16T16:16:31;41.63;;;29.38;;
21804;SDS011;11064;47.102;15.452;2022-10-16T16:19:01;43.40;;;29.67;;
21804;SDS011;11064;47.102;15.452;2022-10-16T16:21:28;44.17;;;30.88;;
21804;SDS011;11064;47.102;15.452;2022-10-16T16:23:54;46.85;;;31.05;;
21804;SDS011;11064;47.102;15.452;2022-10-16T16:26:23;47.85;;;31.65;;
21804;SDS011;11064;47.102;15.452;2022-10-16T16:28:52;43.28;;;30.13;;
21804;SDS011;11064;47.102;15.452;2022-10-16T16:31:19;41.38;;;30.00;;
21804;SDS011;11064;47.102;15.452;2022-10-16T16:33:48;49.00;;;31.98;;
21804;SDS011;11064;47.102;15.452;2022-10-16T16:36:16;41.63;;;30.48;;
21804;SDS011;11064;47.102;15.452;2022-10-16T16:38:43;53.33;;;34.88;;
21804;SDS011;11064;47.102;15.452;2022-10-16T16:41:14;53.30;;;34.25;;
21804;SDS011;11064;47.102;15.452;2022-10-16T16:43:41;44.15;;;32.50;;
21804;SDS011;11064;47.102;15.452;2022-10-16T16:46:07;44.95;;;31.17;;
21804;SDS011;11064;47.102;15.452;2022-10-16T16:48:34;40.38;;;30.02;;
21804;SDS011;11064;47.102;15.452;2022-10-16T16:51:18;44.60;;;32.00;;
21804;SDS011;11064;47.102;15.452;2022-10-16T16:53:48;46.75;;;33.03;;
21804;SDS011;11064;47.102;15.452;2022-10-16T16:58:41;52.83;;;34.33;;
21804;SDS011;11064;47.102;15.452;2022-10-16T17:01:09;44.92;;;31.27;;
21804;SDS011;11064;47.102;15.452;2022-10-16T17:03:36;47.95;;;32.08;;
21804;SDS011;11064;47.102;15.452;2022-10-16T17:06:05;45.03;;;31.80;;
21804;SDS011;11064;47.102;15.452;2022-10-16T17:10:59;45.35;;;31.55;;
21804;SDS011;11064;47.102;15.452;2022-10-16T17:13:28;46.92;;;31.75;;
21804;SDS011;11064;47.102;15.452;2022-10-16T17:15:59;52.90;;;32.03;;
21804;SDS011;11064;47.102;15.452;2022-10-16T17:18:27;46.97;;;32.40;;
21804;SDS011;11064;47.102;15.452;2022-10-16T17:20:53;48.95;;;32.83;;
21804;SDS011;11064;47.102;15.452;2022-10-16T17:23:20;49.65;;;33.30;;
21804;SDS011;11064;47.102;15.452;2022-10-16T17:25:46;51.65;;;32.38;;
21804;SDS011;11064;47.102;15.452;2022-10-16T17:28:13;46.03;;;32.05;;
21804;SDS011;11064;47.102;15.452;2022-10-16T17:30:39;49.22;;;32.13;;
21804;SDS011;11064;47.102;15.452;2022-10-16T17:33:07;52.10;;;34.20;;
21804;SDS011;11064;47.102;15.452;2022-10-16T17:35:44;46.97;;;32.80;;
21804;SDS011;11064;47.102;15.452;2022-10-16T17:38:13;49.95;;;33.47;;
21804;SDS011;11064;47.102;15.452;2022-10-16T17:40:40;48.28;;;33.53;;
21804;SDS011;11064;47.102;15.452;2022-10-16T17:43:07;50.03;;;34.83;;
21804;SDS011;11064;47.102;15.452;2022-10-16T17:45:36;48.75;;;35.00;;
21804;SDS011;11064;47.102;15.452;2022-10-16T17:48:03;50.65;;;34.53;;
21804;SDS011;11064;47.102;15.452;2022-10-16T17:50:29;51.30;;;34.88;;
21804;SDS011;11064;47.102;15.452;2022-10-16T17:52:56;51.63;;;35.60;;
21804;SDS011;11064;47.102;15.452;2022-10-16T17:55:22;49.72;;;34.25;;
21804;SDS011;11064;47.102;15.452;2022-10-16T17:57:48;51.08;;;35.55;;
21804;SDS011;11064;47.102;15.452;2022-10-16T18:00:17;52.08;;;35.15;;
21804;SDS011;11064;47.102;15.452;2022-10-16T18:02:44;52.63;;;35.90;;
21804;SDS011;11064;47.102;15.452;2022-10-16T18:05:12;53.58;;;36.25;;
21804;SDS011;11064;47.102;15.452;2022-10-16T18:07:38;53.45;;;37.40;;
21804;SDS011;11064;47.102;15.452;2022-10-16T18:10:06;48.65;;;35.30;;
21804;SDS011;11064;47.102;15.452;2022-10-16T18:12:33;52.63;;;36.00;;
21804;SDS011;11064;47.102;15.452;2022-10-16T18:15:00;58.13;;;37.70;;
21804;SDS011;11064;47.102;15.452;2022-10-16T18:17:26;56.40;;;38.25;;
21804;SDS011;11064;47.102;15.452;2022-10-16T18:19:53;55.83;;;37.58;;
21804;SDS011;11064;47.102;15.452;2022-10-16T18:22:20;52.33;;;36.33;;
21804;SDS011;11064;47.102;15.452;2022-10-16T18:24:46;52.22;;;36.67;;
21804;SDS011;11064;47.102;15.452;2022-10-16T18:27:12;55.10;;;38.35;;
21804;SDS011;11064;47.102;15.452;2022-10-16T18:29:38;56.08;;;37.60;;
21804;SDS011;11064;47.102;15.452;2022-10-16T18:32:04;58.47;;;37.05;;
21804;SDS011;11064;47.102;15.452;2022-10-16T18:34:32;53.85;;;37.53;;
21804;SDS011;11064;47.102;15.452;2022-10-16T18:37:01;54.97;;;37.05;;
21804;SDS011;11064;47.102;15.452;2022-10-16T18:39:29;53.63;;;36.80;;
21804;SDS011;11064;47.102;15.452;2022-10-16T18:41:55;57.47;;;38.05;;
21804;SDS011;11064;47.102;15.452;2022-10-16T18:44:24;54.33;;;37.72;;
21804;SDS011;11064;47.102;15.452;2022-10-16T18:46:51;58.92;;;36.55;;
21804;SDS011;11064;47.102;15.452;2022-10-16T18:49:21;57.65;;;36.97;;
21804;SDS011;11064;47.102;15.452;2022-10-16T18:51:49;58.65;;;38.03;;
21804;SDS011;11064;47.102;15.452;2022-10-16T18:54:20;56.20;;;38.22;;
21804;SDS011;11064;47.102;15.452;2022-10-16T18:56:47;53.00;;;36.20;;
21804;SDS011;11064;47.102;15.452;2022-10-16T18:59:16;56.80;;;36.85;;
21804;SDS011;11064;47.102;15.452;2022-10-16T19:01:43;54.38;;;37.35;;
21804;SDS011;11064;47.102;15.452;2022-10-16T19:04:12;57.05;;;36.53;;
21804;SDS011;11064;47.102;15.452;2022-10-16T19:06:47;59.55;;;38.20;;
21804;SDS011;11064;47.102;15.452;2022-10-16T19:09:16;54.42;;;36.38;;
21804;SDS011;11064;47.102;15.452;2022-10-16T19:11:43;54.80;;;37.85;;
21804;SDS011;11064;47.102;15.452;2022-10-16T19:14:11;52.67;;;36.20;;
21804;SDS011;11064;47.102;15.452;2022-10-16T19:16:38;56.78;;;37.45;;
21804;SDS011;11064;47.102;15.452;2022-10-16T19:19:07;54.20;;;36.70;;
21804;SDS011;11064;47.102;15.452;2022-10-16T19:21:39;62.20;;;37.92;;
21804;SDS011;11064;47.102;15.452;2022-10-16T19:24:06;57.15;;;38.92;;
21804;SDS011;11064;47.102;15.452;2022-10-16T19:26:34;60.58;;;40.35;;
21804;SDS011;11064;47.102;15.452;2022-10-16T19:29:02;61.05;;;40.53;;
21804;SDS011;11064;47.102;15.452;2022-10-16T19:31:28;61.08;;;40.33;;
21804;SDS011;11064;47.102;15.452;2022-10-16T19:33:59;59.28;;;40.63;;
21804;SDS011;11064;47.102;15.452;2022-10-16T19:36:28;61.63;;;39.83;;
21804;SDS011;11064;47.102;15.452;2022-10-16T19:39:00;59.47;;;39.42;;
21804;SDS011;11064;47.102;15.452;2022-10-16T19:41:31;60.63;;;40.05;;
21804;SDS011;11064;47.102;15.452;2022-10-16T19:44:01;62.28;;;40.05;;
21804;SDS011;11064;47.102;15.452;2022-10-16T19:46:30;61.00;;;40.78;;
21804;SDS011;11064;47.102;15.452;2022-10-16T19:48:57;61.15;;;40.63;;
21804;SDS011;11064;47.102;15.452;2022-10-16T19:51:26;61.05;;;40.10;;
21804;SDS011;11064;47.102;15.452;2022-10-16T19:53:54;60.75;;;39.78;;
21804;SDS011;11064;47.102;15.452;2022-10-16T19:56:23;59.78;;;38.40;;
21804;SDS011;11064;47.102;15.452;2022-10-16T19:58:51;62.38;;;39.05;;
21804;SDS011;11064;47.102;15.452;2022-10-16T20:01:18;60.53;;;39.50;;
21804;SDS011;11064;47.102;15.452;2022-10-16T20:03:45;61.22;;;39.38;;
21804;SDS011;11064;47.102;15.452;2022-10-16T20:06:12;60.53;;;39.85;;
21804;SDS011;11064;47.102;15.452;2022-10-16T20:08:40;60.58;;;40.92;;
21804;SDS011;11064;47.102;15.452;2022-10-16T20:11:17;65.43;;;41.83;;
21804;SDS011;11064;47.102;15.452;2022-10-16T20:13:45;67.63;;;42.10;;
21804;SDS011;11064;47.102;15.452;2022-10-16T20:16:11;66.45;;;42.00;;
21804;SDS011;11064;47.102;15.452;2022-10-16T20:18:38;68.18;;;42.80;;
21804;SDS011;11064;47.102;15.452;2022-10-16T20:21:08;66.28;;;40.67;;
21804;SDS011;11064;47.102;15.452;2022-10-16T20:23:36;65.97;;;40.65;;
21804;SDS011;11064;47.102;15.452;2022-10-16T20:26:03;70.20;;;41.65;;
21804;SDS011;11064;47.102;15.452;2022-10-16T20:28:29;81.18;;;45.67;;
21804;SDS011;11064;47.102;15.452;2022-10-16T20:30:55;74.03;;;43.88;;
21804;SDS011;11064;47.102;15.452;2022-10-16T20:33:21;71.03;;;44.08;;
21804;SDS011;11064;47.102;15.452;2022-10-16T20:35:48;74.13;;;44.40;;
21804;SDS011;11064;47.102;15.452;2022-10-16T20:38:15;74.43;;;44.58;;
21804;SDS011;11064;47.102;15.452;2022-10-16T20:40:43;72.97;;;44.60;;
21804;SDS011;11064;47.102;15.452;2022-10-16T20:43:11;74.45;;;45.22;;
21804;SDS011;11064;47.102;15.452;2022-10-16T20:45:38;69.63;;;43.38;;
21804;SDS011;11064;47.102;15.452;2022-10-16T20:48:04;75.10;;;42.08;;
21804;SDS011;11064;47.102;15.452;2022-10-16T20:50:31;71.90;;;43.10;;
21804;SDS011;11064;47.102;15.452;2022-10-16T20:52:57;72.80;;;42.30;;
21804;SDS011;11064;47.102;15.452;2022-10-16T20:55:24;76.43;;;43.20;;
21804;SDS011;11064;47.102;15.452;2022-10-16T20:57:51;72.30;;;43.05;;
21804;SDS011;11064;47.102;15.452;2022-10-16T21:00:18;75.43;;;44.47;;
21804;SDS011;11064;47.102;15.452;2022-10-16T21:02:44;68.53;;;42.85;;
21804;SDS011;11064;47.102;15.452;2022-10-16T21:05:15;78.22;;;43.45;;
21804;SDS011;11064;47.102;15.452;2022-10-16T21:07:41;69.13;;;43.10;;
21804;SDS011;11064;47.102;15.452;2022-10-16T21:10:07;72.13;;;44.13;;
21804;SDS011;11064;47.102;15.452;2022-10-16T21:12:33;71.70;;;43.15;;
21804;SDS011;11064;47.102;15.452;2022-10-16T21:14:59;79.53;;;46.70;;
21804;SDS011;11064;47.102;15.452;2022-10-16T21:17:25;74.70;;;46.13;;
21804;SDS011;11064;47.102;15.452;2022-10-16T21:19:51;79.53;;;47.53;;
21804;SDS011;11064;47.102;15.452;2022-10-16T21:22:16;74.80;;;44.92;;
21804;SDS011;11064;47.102;15.452;2022-10-16T21:24:42;82.72;;;47.15;;
21804;SDS011;11064;47.102;15.452;2022-10-16T21:27:08;77.78;;;46.35;;
21804;SDS011;11064;47.102;15.452;2022-10-16T21:29:34;78.45;;;45.30;;
21804;SDS011;11064;47.102;15.452;2022-10-16T21:31:59;80.32;;;45.15;;